sensor_id;sensor_type;location;lat;lon;timestamp;P1;durP1;ratioP1;P2;durP2;ratioP2
19623;SDS011;9959;49.798;9.928;2022-09-17T00:01:26;7.72;;;2.15;;
19623;SDS011;9959;49.798;9.928;2022-09-17T00:03:58;4.57;;;2.00;;
19623;SDS011;9959;49.798;9.928;2022-09-17T00:06:29;4.03;;;2.10;;
19623;SDS011;9959;49.798;9.928;2022-09-17T00:08:58;4.50;;;1.92;;
19623;SDS011;9959;49.798;9.928;2022-09-17T00:11:27;6.90;;;2.10;;
19623;SDS011;9959;49.798;9.928;2022-09-17T00:13:57;8.05;;;2.00;;
19623;SDS011;9959;49.798;9.928;2022-09-17T00:16:27;3.47;;;2.25;;
19623;SDS011;9959;49.798;9.928;2022-09-17T00:18:58;4.97;;;2.30;;
19623;SDS011;9959;49.798;9.928;2022-09-17T00:21:26;4.85;;;1.85;;
19623;SDS011;9959;49.798;9.928;2022-09-17T00:23:55;3.45;;;2.00;;
19623;SDS011;9959;49.798;9.928;2022-09-17T00:26:25;4.75;;;1.85;;
19623;SDS011;9959;49.798;9.928;2022-09-17T00:28:54;5.63;;;1.90;;
19623;SDS011;9959;49.798;9.928;2022-09-17T00:31:23;5.88;;;2.35;;
19623;SDS011;9959;49.798;9.928;2022-09-17T00:33:52;8.02;;;2.17;;
19623;SDS011;9959;49.798;9.928;2022-09-17T00:36:22;3.60;;;2.00;;
19623;SDS011;9959;49.798;9.928;2022-09-17T00:38:50;3.17;;;2.00;;
19623;SDS011;9959;49.798;9.928;2022-09-17T00:41:18;7.93;;;2.40;;
19623;SDS011;9959;49.798;9.928;2022-09-17T00:43:47;7.97;;;1.88;;
19623;SDS011;9959;49.798;9.928;2022-09-17T00:46:22;3.47;;;1.92;;
19623;SDS011;9959;49.798;9.928;2022-09-17T00:48:56;8.35;;;2.10;;
19623;SDS011;9959;49.798;9.928;2022-09-17T00:51:30;6.85;;;2.10;;
19623;SDS011;9959;49.798;9.928;2022-09-17T00:54:02;4.75;;;2.10;;
19623;SDS011;9959;49.798;9.928;2022-09-17T00:56:32;3.28;;;1.73;;
19623;SDS011;9959;49.798;9.928;2022-09-17T00:59:03;3.85;;;1.75;;
19623;SDS011;9959;49.798;9.928;2022-09-17T01:01:31;7.10;;;2.28;;
19623;SDS011;9959;49.798;9.928;2022-09-17T01:04:00;2.78;;;1.80;;
19623;SDS011;9959;49.798;9.928;2022-09-17T01:06:31;6.10;;;1.77;;
19623;SDS011;9959;49.798;9.928;2022-09-17T01:09:05;4.38;;;1.70;;
19623;SDS011;9959;49.798;9.928;2022-09-17T01:11:51;1.80;;;1.48;;
19623;SDS011;9959;49.798;9.928;2022-09-17T01:14:33;9.43;;;1.98;;
19623;SDS011;9959;49.798;9.928;2022-09-17T01:17:12;5.70;;;1.90;;
19623;SDS011;9959;49.798;9.928;2022-09-17T01:22:54;5.82;;;2.22;;
19623;SDS011;9959;49.798;9.928;2022-09-17T01:25:30;8.82;;;2.13;;
19623;SDS011;9959;49.798;9.928;2022-09-17T01:28:26;4.45;;;1.85;;
19623;SDS011;9959;49.798;9.928;2022-09-17T01:31:14;3.35;;;1.58;;
19623;SDS011;9959;49.798;9.928;2022-09-17T01:33:58;8.73;;;2.10;;
19623;SDS011;9959;49.798;9.928;2022-09-17T01:36:33;9.48;;;2.60;;
19623;SDS011;9959;49.798;9.928;2022-09-17T01:39:15;3.50;;;1.80;;
19623;SDS011;9959;49.798;9.928;2022-09-17T01:41:53;6.85;;;2.50;;
19623;SDS011;9959;49.798;9.928;2022-09-17T01:44:26;3.95;;;1.70;;
19623;SDS011;9959;49.798;9.928;2022-09-17T01:47:00;3.83;;;1.73;;
19623;SDS011;9959;49.798;9.928;2022-09-17T01:49:32;3.88;;;1.67;;
19623;SDS011;9959;49.798;9.928;2022-09-17T01:52:04;5.82;;;1.48;;
19623;SDS011;9959;49.798;9.928;2022-09-17T01:54:36;7.80;;;2.25;;
19623;SDS011;9959;49.798;9.928;2022-09-17T01:57:11;3.92;;;1.83;;
19623;SDS011;9959;49.798;9.928;2022-09-17T01:59:44;4.93;;;2.00;;
19623;SDS011;9959;49.798;9.928;2022-09-17T02:02:17;4.30;;;2.03;;
19623;SDS011;9959;49.798;9.928;2022-09-17T02:04:51;3.35;;;2.17;;
19623;SDS011;9959;49.798;9.928;2022-09-17T02:07:24;4.55;;;1.98;;
19623;SDS011;9959;49.798;9.928;2022-09-17T02:09:56;5.72;;;1.92;;
19623;SDS011;9959;49.798;9.928;2022-09-17T02:12:31;7.47;;;1.92;;
19623;SDS011;9959;49.798;9.928;2022-09-17T02:15:04;3.47;;;2.15;;
19623;SDS011;9959;49.798;9.928;2022-09-17T02:17:38;3.60;;;1.67;;
19623;SDS011;9959;49.798;9.928;2022-09-17T02:20:10;3.95;;;2.38;;
19623;SDS011;9959;49.798;9.928;2022-09-17T02:22:41;5.32;;;1.88;;
19623;SDS011;9959;49.798;9.928;2022-09-17T02:25:16;4.30;;;1.80;;
19623;SDS011;9959;49.798;9.928;2022-09-17T02:27:51;4.97;;;1.90;;
19623;SDS011;9959;49.798;9.928;2022-09-17T02:30:28;6.68;;;2.10;;
19623;SDS011;9959;49.798;9.928;2022-09-17T02:32:58;9.80;;;2.42;;
19623;SDS011;9959;49.798;9.928;2022-09-17T02:35:29;6.68;;;2.40;;
19623;SDS011;9959;49.798;9.928;2022-09-17T02:37:57;8.98;;;1.98;;
19623;SDS011;9959;49.798;9.928;2022-09-17T02:40:26;4.82;;;1.80;;
19623;SDS011;9959;49.798;9.928;2022-09-17T02:43:02;4.88;;;1.50;;
19623;SDS011;9959;49.798;9.928;2022-09-17T02:45:40;6.72;;;1.83;;
19623;SDS011;9959;49.798;9.928;2022-09-17T02:48:25;4.82;;;1.83;;
19623;SDS011;9959;49.798;9.928;2022-09-17T02:51:10;6.25;;;2.20;;
19623;SDS011;9959;49.798;9.928;2022-09-17T02:53:51;4.70;;;1.77;;
19623;SDS011;9959;49.798;9.928;2022-09-17T02:56:28;3.22;;;1.50;;
19623;SDS011;9959;49.798;9.928;2022-09-17T02:59:08;4.03;;;1.50;;
19623;SDS011;9959;49.798;9.928;2022-09-17T03:01:44;9.13;;;1.63;;
19623;SDS011;9959;49.798;9.928;2022-09-17T03:04:19;6.10;;;1.65;;
19623;SDS011;9959;49.798;9.928;2022-09-17T03:06:50;8.20;;;2.13;;
19623;SDS011;9959;49.798;9.928;2022-09-17T03:09:18;5.40;;;1.67;;
19623;SDS011;9959;49.798;9.928;2022-09-17T03:11:46;4.55;;;1.60;;
19623;SDS011;9959;49.798;9.928;2022-09-17T03:14:14;7.57;;;1.30;;
19623;SDS011;9959;49.798;9.928;2022-09-17T03:16:42;3.25;;;1.40;;
19623;SDS011;9959;49.798;9.928;2022-09-17T03:19:10;7.00;;;2.80;;
19623;SDS011;9959;49.798;9.928;2022-09-17T03:21:39;6.38;;;1.63;;
19623;SDS011;9959;49.798;9.928;2022-09-17T03:24:07;6.82;;;1.35;;
19623;SDS011;9959;49.798;9.928;2022-09-17T03:26:37;7.78;;;1.73;;
19623;SDS011;9959;49.798;9.928;2022-09-17T03:29:05;4.55;;;1.40;;
19623;SDS011;9959;49.798;9.928;2022-09-17T03:31:33;4.95;;;1.23;;
19623;SDS011;9959;49.798;9.928;2022-09-17T03:34:01;2.70;;;1.63;;
19623;SDS011;9959;49.798;9.928;2022-09-17T03:36:29;10.98;;;1.70;;
19623;SDS011;9959;49.798;9.928;2022-09-17T03:38:58;8.52;;;1.90;;
19623;SDS011;9959;49.798;9.928;2022-09-17T03:41:26;8.65;;;2.80;;
19623;SDS011;9959;49.798;9.928;2022-09-17T03:43:54;6.13;;;1.92;;
19623;SDS011;9959;49.798;9.928;2022-09-17T03:46:22;29.67;;;3.25;;
19623;SDS011;9959;49.798;9.928;2022-09-17T03:48:50;8.25;;;2.03;;
19623;SDS011;9959;49.798;9.928;2022-09-17T03:51:18;4.70;;;1.80;;
19623;SDS011;9959;49.798;9.928;2022-09-17T03:53:46;5.90;;;2.17;;
19623;SDS011;9959;49.798;9.928;2022-09-17T03:56:15;2.88;;;1.95;;
19623;SDS011;9959;49.798;9.928;2022-09-17T03:58:43;9.10;;;2.50;;
19623;SDS011;9959;49.798;9.928;2022-09-17T04:01:11;6.20;;;2.17;;
19623;SDS011;9959;49.798;9.928;2022-09-17T04:03:39;10.85;;;3.60;;
19623;SDS011;9959;49.798;9.928;2022-09-17T04:06:07;5.85;;;2.00;;
19623;SDS011;9959;49.798;9.928;2022-09-17T04:08:35;10.27;;;2.33;;
19623;SDS011;9959;49.798;9.928;2022-09-17T04:11:03;7.63;;;2.10;;
19623;SDS011;9959;49.798;9.928;2022-09-17T04:13:34;9.23;;;2.80;;
19623;SDS011;9959;49.798;9.928;2022-09-17T04:16:02;4.78;;;2.58;;
19623;SDS011;9959;49.798;9.928;2022-09-17T04:18:30;8.77;;;2.55;;
19623;SDS011;9959;49.798;9.928;2022-09-17T04:20:58;7.90;;;2.67;;
19623;SDS011;9959;49.798;9.928;2022-09-17T04:23:26;10.57;;;3.10;;
19623;SDS011;9959;49.798;9.928;2022-09-17T04:25:54;8.90;;;2.95;;
19623;SDS011;9959;49.798;9.928;2022-09-17T04:28:22;6.55;;;2.60;;
19623;SDS011;9959;49.798;9.928;2022-09-17T04:30:51;5.05;;;2.80;;
19623;SDS011;9959;49.798;9.928;2022-09-17T04:33:19;10.05;;;2.78;;
19623;SDS011;9959;49.798;9.928;2022-09-17T04:35:47;8.45;;;2.72;;
19623;SDS011;9959;49.798;9.928;2022-09-17T04:38:15;10.90;;;3.60;;
19623;SDS011;9959;49.798;9.928;2022-09-17T04:40:45;13.95;;;2.65;;
19623;SDS011;9959;49.798;9.928;2022-09-17T04:43:13;7.80;;;3.05;;
19623;SDS011;9959;49.798;9.928;2022-09-17T04:45:44;11.30;;;2.97;;
19623;SDS011;9959;49.798;9.928;2022-09-17T04:48:13;13.93;;;2.97;;
19623;SDS011;9959;49.798;9.928;2022-09-17T04:50:41;8.55;;;3.50;;
19623;SDS011;9959;49.798;9.928;2022-09-17T04:53:09;7.35;;;2.97;;
19623;SDS011;9959;49.798;9.928;2022-09-17T04:55:37;11.02;;;2.95;;
19623;SDS011;9959;49.798;9.928;2022-09-17T04:58:06;9.70;;;3.22;;
19623;SDS011;9959;49.798;9.928;2022-09-17T05:00:34;3.80;;;2.33;;
19623;SDS011;9959;49.798;9.928;2022-09-17T05:03:02;7.60;;;2.92;;
19623;SDS011;9959;49.798;9.928;2022-09-17T05:05:31;7.15;;;2.67;;
19623;SDS011;9959;49.798;9.928;2022-09-17T05:07:59;4.97;;;3.45;;
19623;SDS011;9959;49.798;9.928;2022-09-17T05:10:27;13.75;;;2.95;;
19623;SDS011;9959;49.798;9.928;2022-09-17T05:12:55;7.38;;;2.50;;
19623;SDS011;9959;49.798;9.928;2022-09-17T05:15:24;9.32;;;2.50;;
19623;SDS011;9959;49.798;9.928;2022-09-17T05:17:53;6.20;;;2.22;;
19623;SDS011;9959;49.798;9.928;2022-09-17T05:20:21;8.15;;;2.83;;
19623;SDS011;9959;49.798;9.928;2022-09-17T05:22:50;6.93;;;3.03;;
19623;SDS011;9959;49.798;9.928;2022-09-17T05:25:19;6.28;;;2.75;;
19623;SDS011;9959;49.798;9.928;2022-09-17T05:27:49;5.20;;;2.53;;
19623;SDS011;9959;49.798;9.928;2022-09-17T05:30:18;7.03;;;2.83;;
19623;SDS011;9959;49.798;9.928;2022-09-17T05:32:46;4.72;;;2.53;;
19623;SDS011;9959;49.798;9.928;2022-09-17T05:35:14;9.18;;;3.28;;
19623;SDS011;9959;49.798;9.928;2022-09-17T05:37:42;7.22;;;2.67;;
19623;SDS011;9959;49.798;9.928;2022-09-17T05:40:12;6.13;;;2.45;;
19623;SDS011;9959;49.798;9.928;2022-09-17T05:42:40;5.15;;;2.50;;
19623;SDS011;9959;49.798;9.928;2022-09-17T05:45:08;5.55;;;2.40;;
19623;SDS011;9959;49.798;9.928;2022-09-17T05:47:37;3.30;;;2.63;;
19623;SDS011;9959;49.798;9.928;2022-09-17T05:50:04;6.18;;;2.55;;
19623;SDS011;9959;49.798;9.928;2022-09-17T05:52:32;4.28;;;2.50;;
19623;SDS011;9959;49.798;9.928;2022-09-17T05:55:00;2.92;;;2.28;;
19623;SDS011;9959;49.798;9.928;2022-09-17T05:57:30;3.30;;;2.05;;
19623;SDS011;9959;49.798;9.928;2022-09-17T05:59:57;7.57;;;2.55;;
19623;SDS011;9959;49.798;9.928;2022-09-17T06:02:25;8.23;;;2.60;;
19623;SDS011;9959;49.798;9.928;2022-09-17T06:04:53;4.15;;;2.28;;
19623;SDS011;9959;49.798;9.928;2022-09-17T06:07:21;7.82;;;3.05;;
19623;SDS011;9959;49.798;9.928;2022-09-17T06:09:49;4.63;;;2.65;;
19623;SDS011;9959;49.798;9.928;2022-09-17T06:12:17;5.72;;;2.30;;
19623;SDS011;9959;49.798;9.928;2022-09-17T06:14:46;4.20;;;2.88;;
19623;SDS011;9959;49.798;9.928;2022-09-17T06:17:14;3.08;;;2.28;;
19623;SDS011;9959;49.798;9.928;2022-09-17T06:19:46;4.63;;;2.47;;
19623;SDS011;9959;49.798;9.928;2022-09-17T06:22:16;5.55;;;3.20;;
19623;SDS011;9959;49.798;9.928;2022-09-17T06:24:44;4.90;;;2.22;;
19623;SDS011;9959;49.798;9.928;2022-09-17T06:27:12;4.35;;;3.03;;
19623;SDS011;9959;49.798;9.928;2022-09-17T06:29:40;3.53;;;2.55;;
19623;SDS011;9959;49.798;9.928;2022-09-17T06:32:09;5.35;;;2.90;;
19623;SDS011;9959;49.798;9.928;2022-09-17T06:34:38;7.65;;;2.50;;
19623;SDS011;9959;49.798;9.928;2022-09-17T06:37:06;8.63;;;2.30;;
19623;SDS011;9959;49.798;9.928;2022-09-17T06:39:34;4.03;;;2.38;;
19623;SDS011;9959;49.798;9.928;2022-09-17T06:42:02;7.05;;;2.42;;
19623;SDS011;9959;49.798;9.928;2022-09-17T06:44:30;3.28;;;2.25;;
19623;SDS011;9959;49.798;9.928;2022-09-17T06:46:58;5.68;;;2.35;;
19623;SDS011;9959;49.798;9.928;2022-09-17T06:49:27;5.22;;;2.63;;
19623;SDS011;9959;49.798;9.928;2022-09-17T06:51:56;5.60;;;2.42;;
19623;SDS011;9959;49.798;9.928;2022-09-17T06:54:24;4.38;;;2.22;;
19623;SDS011;9959;49.798;9.928;2022-09-17T06:56:52;5.60;;;2.30;;
19623;SDS011;9959;49.798;9.928;2022-09-17T06:59:20;7.22;;;2.63;;
19623;SDS011;9959;49.798;9.928;2022-09-17T07:01:48;6.22;;;2.95;;
19623;SDS011;9959;49.798;9.928;2022-09-17T07:04:15;5.82;;;2.50;;
19623;SDS011;9959;49.798;9.928;2022-09-17T07:06:45;4.47;;;2.30;;
19623;SDS011;9959;49.798;9.928;2022-09-17T07:09:13;5.95;;;2.25;;
19623;SDS011;9959;49.798;9.928;2022-09-17T07:11:41;7.07;;;3.00;;
19623;SDS011;9959;49.798;9.928;2022-09-17T07:14:09;9.45;;;3.03;;
19623;SDS011;9959;49.798;9.928;2022-09-17T07:16:37;15.23;;;3.20;;
19623;SDS011;9959;49.798;9.928;2022-09-17T07:19:04;4.72;;;2.20;;
19623;SDS011;9959;49.798;9.928;2022-09-17T07:21:34;5.95;;;2.50;;
19623;SDS011;9959;49.798;9.928;2022-09-17T07:24:03;6.55;;;1.95;;
19623;SDS011;9959;49.798;9.928;2022-09-17T07:26:31;3.45;;;2.17;;
19623;SDS011;9959;49.798;9.928;2022-09-17T07:28:59;8.65;;;2.38;;
19623;SDS011;9959;49.798;9.928;2022-09-17T07:31:27;7.95;;;2.90;;
19623;SDS011;9959;49.798;9.928;2022-09-17T07:33:55;4.57;;;2.55;;
19623;SDS011;9959;49.798;9.928;2022-09-17T07:36:24;6.50;;;2.40;;
19623;SDS011;9959;49.798;9.928;2022-09-17T07:38:52;5.32;;;2.95;;
19623;SDS011;9959;49.798;9.928;2022-09-17T07:41:21;8.60;;;2.88;;
19623;SDS011;9959;49.798;9.928;2022-09-17T07:43:50;4.57;;;2.30;;
19623;SDS011;9959;49.798;9.928;2022-09-17T07:46:20;6.63;;;2.47;;
19623;SDS011;9959;49.798;9.928;2022-09-17T07:48:48;7.40;;;2.22;;
19623;SDS011;9959;49.798;9.928;2022-09-17T07:51:17;7.70;;;2.92;;
19623;SDS011;9959;49.798;9.928;2022-09-17T07:53:49;9.23;;;2.70;;
19623;SDS011;9959;49.798;9.928;2022-09-17T07:56:17;11.70;;;2.60;;
19623;SDS011;9959;49.798;9.928;2022-09-17T07:58:47;6.25;;;2.90;;
19623;SDS011;9959;49.798;9.928;2022-09-17T08:01:15;6.00;;;2.30;;
19623;SDS011;9959;49.798;9.928;2022-09-17T08:03:46;10.75;;;2.88;;
19623;SDS011;9959;49.798;9.928;2022-09-17T08:06:16;7.53;;;2.83;;
19623;SDS011;9959;49.798;9.928;2022-09-17T08:08:46;8.68;;;2.70;;
19623;SDS011;9959;49.798;9.928;2022-09-17T08:11:16;6.25;;;2.38;;
19623;SDS011;9959;49.798;9.928;2022-09-17T08:14:05;6.25;;;2.30;;
19623;SDS011;9959;49.798;9.928;2022-09-17T08:16:33;6.80;;;2.58;;
19623;SDS011;9959;49.798;9.928;2022-09-17T08:19:01;13.35;;;3.22;;
19623;SDS011;9959;49.798;9.928;2022-09-17T08:21:29;8.98;;;2.78;;
19623;SDS011;9959;49.798;9.928;2022-09-17T08:23:57;11.02;;;2.85;;
19623;SDS011;9959;49.798;9.928;2022-09-17T08:26:25;5.72;;;2.45;;
19623;SDS011;9959;49.798;9.928;2022-09-17T08:28:53;8.10;;;2.80;;
19623;SDS011;9959;49.798;9.928;2022-09-17T08:31:24;9.20;;;2.53;;
19623;SDS011;9959;49.798;9.928;2022-09-17T08:33:53;7.45;;;2.60;;
19623;SDS011;9959;49.798;9.928;2022-09-17T08:36:22;5.72;;;2.13;;
19623;SDS011;9959;49.798;9.928;2022-09-17T08:38:51;6.68;;;2.72;;
19623;SDS011;9959;49.798;9.928;2022-09-17T08:41:22;6.82;;;2.20;;
19623;SDS011;9959;49.798;9.928;2022-09-17T08:43:57;5.45;;;2.33;;
19623;SDS011;9959;49.798;9.928;2022-09-17T08:46:41;8.00;;;2.17;;
19623;SDS011;9959;49.798;9.928;2022-09-17T08:49:15;10.13;;;2.15;;
19623;SDS011;9959;49.798;9.928;2022-09-17T08:51:55;7.35;;;2.25;;
19623;SDS011;9959;49.798;9.928;2022-09-17T08:54:35;6.32;;;2.50;;
19623;SDS011;9959;49.798;9.928;2022-09-17T08:57:12;12.32;;;3.10;;
19623;SDS011;9959;49.798;9.928;2022-09-17T08:59:48;5.65;;;2.40;;
19623;SDS011;9959;49.798;9.928;2022-09-17T09:02:30;8.45;;;2.72;;
19623;SDS011;9959;49.798;9.928;2022-09-17T09:05:08;5.50;;;2.53;;
19623;SDS011;9959;49.798;9.928;2022-09-17T09:07:41;11.93;;;3.50;;
19623;SDS011;9959;49.798;9.928;2022-09-17T09:10:15;8.85;;;3.13;;
19623;SDS011;9959;49.798;9.928;2022-09-17T09:12:45;5.05;;;2.13;;
19623;SDS011;9959;49.798;9.928;2022-09-17T09:15:18;6.35;;;2.75;;
19623;SDS011;9959;49.798;9.928;2022-09-17T09:17:49;4.97;;;2.65;;
19623;SDS011;9959;49.798;9.928;2022-09-17T09:20:18;5.35;;;2.85;;
19623;SDS011;9959;49.798;9.928;2022-09-17T09:22:48;7.28;;;3.22;;
19623;SDS011;9959;49.798;9.928;2022-09-17T09:25:18;10.73;;;3.70;;
19623;SDS011;9959;49.798;9.928;2022-09-17T09:27:52;6.07;;;2.58;;
19623;SDS011;9959;49.798;9.928;2022-09-17T09:30:23;10.02;;;2.85;;
19623;SDS011;9959;49.798;9.928;2022-09-17T09:32:55;8.02;;;3.25;;
19623;SDS011;9959;49.798;9.928;2022-09-17T09:35:25;11.13;;;3.28;;
19623;SDS011;9959;49.798;9.928;2022-09-17T09:37:55;10.88;;;3.13;;
19623;SDS011;9959;49.798;9.928;2022-09-17T09:40:30;12.32;;;3.97;;
19623;SDS011;9959;49.798;9.928;2022-09-17T09:43:00;8.82;;;2.92;;
19623;SDS011;9959;49.798;9.928;2022-09-17T09:45:34;7.18;;;2.47;;
19623;SDS011;9959;49.798;9.928;2022-09-17T09:48:07;9.68;;;2.65;;
19623;SDS011;9959;49.798;9.928;2022-09-17T09:50:42;8.30;;;2.67;;
19623;SDS011;9959;49.798;9.928;2022-09-17T09:53:34;8.10;;;2.53;;
19623;SDS011;9959;49.798;9.928;2022-09-17T09:56:14;7.85;;;2.55;;
19623;SDS011;9959;49.798;9.928;2022-09-17T09:58:45;13.68;;;2.92;;
19623;SDS011;9959;49.798;9.928;2022-09-17T10:04:35;9.70;;;2.67;;
19623;SDS011;9959;49.798;9.928;2022-09-17T10:07:04;4.03;;;2.33;;
19623;SDS011;9959;49.798;9.928;2022-09-17T10:09:33;4.63;;;2.00;;
19623;SDS011;9959;49.798;9.928;2022-09-17T10:12:02;10.63;;;2.85;;
19623;SDS011;9959;49.798;9.928;2022-09-17T10:14:30;5.70;;;2.22;;
19623;SDS011;9959;49.798;9.928;2022-09-17T10:17:15;6.03;;;2.83;;
19623;SDS011;9959;49.798;9.928;2022-09-17T10:19:46;6.60;;;2.20;;
19623;SDS011;9959;49.798;9.928;2022-09-17T10:22:18;3.05;;;1.77;;
19623;SDS011;9959;49.798;9.928;2022-09-17T10:24:46;4.32;;;2.00;;
19623;SDS011;9959;49.798;9.928;2022-09-17T10:27:14;7.38;;;1.92;;
19623;SDS011;9959;49.798;9.928;2022-09-17T10:29:43;4.22;;;2.10;;
19623;SDS011;9959;49.798;9.928;2022-09-17T10:32:14;5.88;;;2.17;;
19623;SDS011;9959;49.798;9.928;2022-09-17T10:34:42;4.85;;;2.08;;
19623;SDS011;9959;49.798;9.928;2022-09-17T10:37:35;5.03;;;2.05;;
19623;SDS011;9959;49.798;9.928;2022-09-17T10:40:24;6.00;;;2.20;;
19623;SDS011;9959;49.798;9.928;2022-09-17T10:45:35;4.97;;;2.20;;
19623;SDS011;9959;49.798;9.928;2022-09-17T10:48:11;5.95;;;1.85;;
19623;SDS011;9959;49.798;9.928;2022-09-17T10:50:40;3.38;;;2.00;;
19623;SDS011;9959;49.798;9.928;2022-09-17T10:53:14;6.68;;;2.10;;
19623;SDS011;9959;49.798;9.928;2022-09-17T10:55:41;4.38;;;1.85;;
19623;SDS011;9959;49.798;9.928;2022-09-17T10:58:16;2.25;;;1.50;;
19623;SDS011;9959;49.798;9.928;2022-09-17T11:00:48;4.38;;;1.85;;
19623;SDS011;9959;49.798;9.928;2022-09-17T11:03:25;7.95;;;2.38;;
19623;SDS011;9959;49.798;9.928;2022-09-17T11:06:02;4.03;;;2.10;;
19623;SDS011;9959;49.798;9.928;2022-09-17T11:08:42;6.68;;;2.00;;
19623;SDS011;9959;49.798;9.928;2022-09-17T11:11:14;5.07;;;2.33;;
19623;SDS011;9959;49.798;9.928;2022-09-17T11:13:46;7.15;;;2.60;;
19623;SDS011;9959;49.798;9.928;2022-09-17T11:16:23;5.80;;;2.28;;
19623;SDS011;9959;49.798;9.928;2022-09-17T11:18:58;4.88;;;2.15;;
19623;SDS011;9959;49.798;9.928;2022-09-17T11:21:44;6.55;;;2.15;;
19623;SDS011;9959;49.798;9.928;2022-09-17T11:24:25;5.55;;;1.90;;
19623;SDS011;9959;49.798;9.928;2022-09-17T11:26:57;3.38;;;1.67;;
19623;SDS011;9959;49.798;9.928;2022-09-17T11:29:33;4.30;;;1.90;;
19623;SDS011;9959;49.798;9.928;2022-09-17T11:32:09;4.28;;;1.77;;
19623;SDS011;9959;49.798;9.928;2022-09-17T11:34:41;7.18;;;2.10;;
19623;SDS011;9959;49.798;9.928;2022-09-17T11:37:11;4.38;;;1.90;;
19623;SDS011;9959;49.798;9.928;2022-09-17T11:39:42;4.10;;;2.05;;
19623;SDS011;9959;49.798;9.928;2022-09-17T11:42:14;13.63;;;3.22;;
19623;SDS011;9959;49.798;9.928;2022-09-17T11:44:45;3.67;;;1.98;;
19623;SDS011;9959;49.798;9.928;2022-09-17T11:47:15;3.40;;;1.73;;
19623;SDS011;9959;49.798;9.928;2022-09-17T11:49:46;9.30;;;2.20;;
19623;SDS011;9959;49.798;9.928;2022-09-17T11:52:18;3.45;;;1.52;;
19623;SDS011;9959;49.798;9.928;2022-09-17T11:54:49;7.68;;;1.85;;
19623;SDS011;9959;49.798;9.928;2022-09-17T11:57:19;2.95;;;2.00;;
19623;SDS011;9959;49.798;9.928;2022-09-17T11:59:49;5.72;;;2.05;;
19623;SDS011;9959;49.798;9.928;2022-09-17T12:02:20;5.60;;;2.28;;
19623;SDS011;9959;49.798;9.928;2022-09-17T12:04:51;5.75;;;2.17;;
19623;SDS011;9959;49.798;9.928;2022-09-17T12:07:26;7.25;;;3.03;;
19623;SDS011;9959;49.798;9.928;2022-09-17T12:09:57;8.70;;;2.90;;
19623;SDS011;9959;49.798;9.928;2022-09-17T12:12:26;5.00;;;2.30;;
19623;SDS011;9959;49.798;9.928;2022-09-17T12:15:16;5.70;;;2.38;;
19623;SDS011;9959;49.798;9.928;2022-09-17T12:17:46;9.63;;;2.95;;
19623;SDS011;9959;49.798;9.928;2022-09-17T12:20:37;10.38;;;2.95;;
19623;SDS011;9959;49.798;9.928;2022-09-17T12:23:09;8.60;;;2.95;;
19623;SDS011;9959;49.798;9.928;2022-09-17T12:25:39;6.65;;;2.80;;
19623;SDS011;9959;49.798;9.928;2022-09-17T12:28:10;8.38;;;2.45;;
19623;SDS011;9959;49.798;9.928;2022-09-17T12:30:42;5.40;;;2.60;;
19623;SDS011;9959;49.798;9.928;2022-09-17T12:33:16;5.40;;;2.08;;
19623;SDS011;9959;49.798;9.928;2022-09-17T12:35:49;6.15;;;2.47;;
19623;SDS011;9959;49.798;9.928;2022-09-17T12:41:20;5.38;;;1.92;;
19623;SDS011;9959;49.798;9.928;2022-09-17T12:43:55;5.25;;;1.67;;
19623;SDS011;9959;49.798;9.928;2022-09-17T12:46:29;2.55;;;1.35;;
19623;SDS011;9959;49.798;9.928;2022-09-17T12:49:02;3.03;;;1.30;;
19623;SDS011;9959;49.798;9.928;2022-09-17T12:51:51;3.67;;;1.40;;
19623;SDS011;9959;49.798;9.928;2022-09-17T12:54:28;3.08;;;1.20;;
19623;SDS011;9959;49.798;9.928;2022-09-17T12:57:15;3.03;;;1.23;;
19623;SDS011;9959;49.798;9.928;2022-09-17T12:59:55;3.15;;;1.40;;
19623;SDS011;9959;49.798;9.928;2022-09-17T13:02:34;2.22;;;1.08;;
19623;SDS011;9959;49.798;9.928;2022-09-17T13:05:18;8.07;;;1.50;;
19623;SDS011;9959;49.798;9.928;2022-09-17T13:11:16;1.83;;;1.20;;
19623;SDS011;9959;49.798;9.928;2022-09-17T13:14:16;6.22;;;1.60;;
19623;SDS011;9959;49.798;9.928;2022-09-17T13:16:48;3.33;;;1.23;;
19623;SDS011;9959;49.798;9.928;2022-09-17T13:19:22;1.52;;;1.20;;
19623;SDS011;9959;49.798;9.928;2022-09-17T13:21:52;4.05;;;1.75;;
19623;SDS011;9959;49.798;9.928;2022-09-17T13:24:21;3.45;;;1.20;;
19623;SDS011;9959;49.798;9.928;2022-09-17T13:26:52;5.10;;;1.80;;
19623;SDS011;9959;49.798;9.928;2022-09-17T13:38:17;4.93;;;1.20;;
19623;SDS011;9959;49.798;9.928;2022-09-17T13:40:49;2.53;;;1.20;;
19623;SDS011;9959;49.798;9.928;2022-09-17T13:43:18;4.70;;;1.42;;
19623;SDS011;9959;49.798;9.928;2022-09-17T13:46:07;5.78;;;1.30;;
19623;SDS011;9959;49.798;9.928;2022-09-17T13:48:48;8.55;;;1.30;;
19623;SDS011;9959;49.798;9.928;2022-09-17T13:54:14;6.15;;;1.45;;
19623;SDS011;9959;49.798;9.928;2022-09-17T13:56:46;1.15;;;1.00;;
19623;SDS011;9959;49.798;9.928;2022-09-17T13:59:18;3.05;;;1.05;;
19623;SDS011;9959;49.798;9.928;2022-09-17T14:01:58;3.80;;;1.23;;
19623;SDS011;9959;49.798;9.928;2022-09-17T14:04:44;3.83;;;1.30;;
19623;SDS011;9959;49.798;9.928;2022-09-17T14:07:29;5.43;;;0.95;;
19623;SDS011;9959;49.798;9.928;2022-09-17T14:09:59;4.03;;;1.23;;
19623;SDS011;9959;49.798;9.928;2022-09-17T14:15:33;2.67;;;1.10;;
19623;SDS011;9959;49.798;9.928;2022-09-17T14:21:08;3.58;;;1.13;;
19623;SDS011;9959;49.798;9.928;2022-09-17T14:23:41;4.18;;;0.90;;
19623;SDS011;9959;49.798;9.928;2022-09-17T14:26:13;1.50;;;0.90;;
19623;SDS011;9959;49.798;9.928;2022-09-17T14:28:48;2.88;;;1.10;;
19623;SDS011;9959;49.798;9.928;2022-09-17T14:31:26;3.83;;;0.93;;
19623;SDS011;9959;49.798;9.928;2022-09-17T14:34:02;2.35;;;0.88;;
19623;SDS011;9959;49.798;9.928;2022-09-17T14:36:33;2.67;;;1.58;;
19623;SDS011;9959;49.798;9.928;2022-09-17T14:39:05;1.70;;;1.02;;
19623;SDS011;9959;49.798;9.928;2022-09-17T14:41:39;4.47;;;1.20;;
19623;SDS011;9959;49.798;9.928;2022-09-17T14:44:11;2.28;;;1.17;;
19623;SDS011;9959;49.798;9.928;2022-09-17T14:46:42;1.63;;;0.90;;
19623;SDS011;9959;49.798;9.928;2022-09-17T14:49:20;5.60;;;1.45;;
19623;SDS011;9959;49.798;9.928;2022-09-17T14:51:49;2.58;;;1.23;;
19623;SDS011;9959;49.798;9.928;2022-09-17T14:54:18;4.68;;;1.40;;
19623;SDS011;9959;49.798;9.928;2022-09-17T14:56:52;4.68;;;1.20;;
19623;SDS011;9959;49.798;9.928;2022-09-17T14:59:22;4.22;;;1.00;;
19623;SDS011;9959;49.798;9.928;2022-09-17T15:01:55;2.83;;;1.08;;
19623;SDS011;9959;49.798;9.928;2022-09-17T15:04:25;6.78;;;1.40;;
19623;SDS011;9959;49.798;9.928;2022-09-17T15:07:05;4.22;;;1.20;;
19623;SDS011;9959;49.798;9.928;2022-09-17T15:09:35;5.22;;;1.35;;
19623;SDS011;9959;49.798;9.928;2022-09-17T15:12:03;7.57;;;1.20;;
19623;SDS011;9959;49.798;9.928;2022-09-17T15:14:35;2.65;;;1.15;;
19623;SDS011;9959;49.798;9.928;2022-09-17T15:17:05;2.70;;;1.08;;
19623;SDS011;9959;49.798;9.928;2022-09-17T15:19:41;4.38;;;1.20;;
19623;SDS011;9959;49.798;9.928;2022-09-17T15:22:14;3.15;;;1.02;;
19623;SDS011;9959;49.798;9.928;2022-09-17T15:24:46;3.45;;;1.15;;
19623;SDS011;9959;49.798;9.928;2022-09-17T15:27:20;3.65;;;1.40;;
19623;SDS011;9959;49.798;9.928;2022-09-17T15:29:58;4.53;;;1.20;;
19623;SDS011;9959;49.798;9.928;2022-09-17T15:32:30;4.60;;;0.85;;
19623;SDS011;9959;49.798;9.928;2022-09-17T15:35:17;5.03;;;1.20;;
19623;SDS011;9959;49.798;9.928;2022-09-17T15:37:47;2.42;;;0.93;;
19623;SDS011;9959;49.798;9.928;2022-09-17T15:40:37;1.77;;;0.70;;
19623;SDS011;9959;49.798;9.928;2022-09-17T15:43:12;2.47;;;0.80;;
19623;SDS011;9959;49.798;9.928;2022-09-17T15:45:43;3.60;;;1.08;;
19623;SDS011;9959;49.798;9.928;2022-09-17T15:48:19;1.45;;;0.73;;
19623;SDS011;9959;49.798;9.928;2022-09-17T15:51:01;2.05;;;0.80;;
19623;SDS011;9959;49.798;9.928;2022-09-17T15:53:32;0.75;;;0.68;;
19623;SDS011;9959;49.798;9.928;2022-09-17T15:56:02;0.50;;;0.50;;
19623;SDS011;9959;49.798;9.928;2022-09-17T15:58:35;3.65;;;1.20;;
19623;SDS011;9959;49.798;9.928;2022-09-17T16:04:21;1.70;;;1.02;;
19623;SDS011;9959;49.798;9.928;2022-09-17T16:06:56;2.97;;;1.17;;